CGV6 weather

Grand Valley (Martin Field)
Ontario, Canada

Public forecast

Using degrees Celsius for public forecast. Weather courtesy of forecast.io.

Closest aviation weather report (METAR) to Grand Valley (Martin Field)

Closest report is Waterloo Airport, 25.2 nm (46.7 km) S. Retrieved 2019/10/23 04:00 UTC (38 minutes ago):

CYKF 230400Z AUTO 24011G19KT 9SM OVC070 09/04 A2975 RMK SLP079

Closest aviation forecast (TAF) to Grand Valley (Martin Field)

Closest forecast is Waterloo Airport, 25.2 nm (46.7 km) S. Retrieved 2019-10-23 02:39 UTC (2 hours ago):

TAF CYKF 230138Z 2302/2314 23012G22KT P6SM BKN025 TEMPO 2302/2314 BKN020 BECMG 2303/2305 24012KT RMK FCST BASED ON AUTO OBS NXT FCST BY 230800Z